Naven, Sweden

12:07 PM CEST on September 03, 2015 (GMT +0200)
Husaby | | Change Station
CLOSE
Current Station
Personal Weather Station
Location: Husaby, VäSTRA GöTALANDS LäN
Elevation: 295 ft
Nearby Weather Stations

Elev 295 ft 58.53 °N, 13.38 °E | Updated 27 seconds ago

Scattered Clouds
Scattered Clouds
60.3 °F
Feels Like 60.3 °F
N
4.5
Wind Variable Wind from NW
Gusts 8.3 mph

Today
High -- | Low -- °F
--% Chance of Precip.
Yesterday
High -- | Low -- °F
Precip. -- in
6:09 AM 8:03 PM
Waning Gibbous, 71% visible
Pressure 29.86 in
Visibility 6.2 miles
Clouds Few 2500 ft
Scattered Clouds 7000 ft
Dew Point 53 °F
Humidity 76%
Rainfall 0.01 in
Snow Depth Not available.
UV 3 out of 12
Pollen Not available.
Air Quality Not available.
Flu Activity Not available.
METAR ESIB 030950Z 20009KT 9999 FEW025TCU SCT070 17/11 Q1011
Pressure 29.86 in
Visibility 6.2 miles
Clouds Few 2500 ft
Scattered Clouds 7000 ft
Dew Point 53 °F
Humidity 76%
Rainfall 0.01 in
Snow Depth Not available.
UV 3 out of 12
Pollen Not available.
Air Quality Not available.
Flu Activity Not available.
METAR ESIB 030950Z 20009KT 9999 FEW025TCU SCT070 17/11 Q1011

10-Day Weather Forecast

×

Almanac

Astronomy

Sep. 03, 2015 Rise Set
Actual Time
Civil Twilight
Nautical Twilight
Astronomical Twilight
Moon
Length of Visible Light
Length of Day
Tomorrow will be .
, % of the Moon is Illuminated

Today's Extremes

Country Highs Country Lows

Community

WunderPhotos

Upload Photos

1,851,923 photos uploaded!

WunderBlogs® & News

Nearby

Air Quality

  Air Quality AQ Index Pollutant
Not available.

Snow Depth

Station Depth Elevation

Earthquake Activity

City Distance Mag. Time & Date
Minimum magnitude displayed is 2.5.

Coastal Water Temperatures

Place Temperature

Stations

Nearby Weather Stations

Station Location Temp. Windchill Dew Point Humidity Wind Precip. Elev Updated Type